Time;durP1;ratioP1;P1;durP2;ratioP2;P2;SDS_P1;SDS_P2;PMS_P1;PMS_P2;Temp;Humidity;BMP_temperature;BMP_pressure;BME280_temperature;BME280_humidity;BME280_pressure;Samples;Min_cycle;Max_cycle;Signal;HPM_P1;HPM_P2
2022/09/28 00:01:53;;;;;;;12.80;7.20;;;11.20;82.90;;;;;;9180759;19;20018;-70
2022/09/28 00:04:56;;;;;;;10.18;6.90;;;11.20;82.90;;;;;;9180684;19;20013;-69
2022/09/28 00:08:00;;;;;;;13.32;6.60;;;11.20;82.80;;;;;;9179031;19;20752;-69
2022/09/28 00:11:05;;;;;;;11.10;7.25;;;11.20;82.90;;;;;;9179885;19;20019;-70
2022/09/28 00:14:10;;;;;;;11.00;7.50;;;11.20;82.90;;;;;;9180333;19;20048;-71
2022/09/28 00:17:15;;;;;;;15.95;7.20;;;11.20;82.90;;;;;;9179621;19;20074;-69
2022/09/28 00:20:21;;;;;;;10.70;6.93;;;11.20;82.90;;;;;;9175568;19;20026;-69
2022/09/28 00:23:24;;;;;;;12.73;7.25;;;11.20;82.90;;;;;;9182485;19;20038;-71
2022/09/28 00:26:29;;;;;;;12.00;7.53;;;11.20;83.00;;;;;;9178807;19;20082;-68
2022/09/28 00:29:35;;;;;;;10.95;7.40;;;11.20;83.00;;;;;;9180960;19;20082;-70
2022/09/28 00:32:40;;;;;;;12.18;6.82;;;11.20;83.00;;;;;;9177961;19;20082;-70
2022/09/28 00:35:45;;;;;;;15.70;7.93;;;11.20;83.00;;;;;;9176428;19;20018;-69
2022/09/28 00:38:50;;;;;;;12.85;7.38;;;11.20;83.00;;;;;;9179513;19;20030;-70
2022/09/28 00:41:55;;;;;;;12.57;7.97;;;11.20;83.00;;;;;;9179314;19;20505;-70
2022/09/28 00:44:59;;;;;;;13.90;8.27;;;11.20;83.00;;;;;;9177459;19;20011;-69
2022/09/28 00:48:05;;;;;;;16.17;7.60;;;11.20;83.00;;;;;;9178580;19;20023;-70
2022/09/28 00:51:12;;;;;;;13.82;7.05;;;11.20;83.10;;;;;;9180887;19;20516;-70
2022/09/28 00:54:17;;;;;;;10.73;7.85;;;11.20;83.10;;;;;;9184818;19;20022;-69
2022/09/28 00:57:22;;;;;;;10.57;7.55;;;11.20;83.10;;;;;;9182082;19;20026;-69
2022/09/28 01:00:26;;;;;;;14.15;7.72;;;11.20;83.10;;;;;;9185619;19;20030;-67
2022/09/28 01:03:33;;;;;;;;;;;11.20;83.10;;;;;;9187430;19;20042;-70
2022/09/28 01:06:39;;;;;;;12.40;8.02;;;11.20;83.20;;;;;;9185060;19;19922;-69
2022/09/28 01:09:44;;;;;;;12.70;8.35;;;11.20;83.00;;;;;;9183033;19;20010;-70
2022/09/28 01:12:48;;;;;;;13.68;8.63;;;11.20;83.00;;;;;;9186230;19;20483;-69
2022/09/28 01:16:01;;;;;;;14.23;9.18;;;11.20;83.10;;;;;;9182212;19;20018;-71
2022/09/28 01:19:23;;;;;;;13.73;9.32;;;11.20;83.20;;;;;;9183924;19;20505;-70
2022/09/28 01:22:46;;;;;;;16.20;9.07;;;11.20;83.20;;;;;;9185448;19;20023;-71
2022/09/28 01:25:56;;;;;;;17.67;9.98;;;11.20;83.20;;;;;;9185842;19;20421;-69
2022/09/28 01:29:06;;;;;;;14.98;10.35;;;11.20;83.10;;;;;;9185693;19;20028;-69
2022/09/28 01:32:17;;;;;;;15.27;9.45;;;11.20;83.20;;;;;;9184226;19;20510;-68
2022/09/28 01:35:26;;;;;;;17.30;10.18;;;11.20;83.20;;;;;;9184786;19;20341;-70
2022/09/28 01:38:32;;;;;;;14.57;10.07;;;11.20;83.20;;;;;;9185613;19;20082;-70
2022/09/28 01:41:39;;;;;;;18.73;10.70;;;11.20;83.20;;;;;;9182978;19;20015;-70
2022/09/28 01:44:48;;;;;;;19.38;11.55;;;11.20;83.30;;;;;;9184760;19;20019;-70
2022/09/28 01:47:55;;;;;;;18.73;11.90;;;11.20;83.20;;;;;;9183963;19;20010;-70
2022/09/28 01:51:01;;;;;;;22.13;11.55;;;11.20;83.20;;;;;;9183819;19;20010;-67
2022/09/28 01:54:11;;;;;;;21.27;11.32;;;11.20;83.20;;;;;;9184673;19;20025;-69
2022/09/28 01:57:22;;;;;;;16.92;10.98;;;11.20;83.30;;;;;;9175586;19;20096;-72
2022/09/28 02:00:29;;;;;;;20.48;10.55;;;11.20;83.20;;;;;;9182876;19;20486;-65
2022/09/28 02:03:39;;;;;;;17.08;10.57;;;11.20;83.20;;;;;;9180027;19;20026;-71
2022/09/28 02:06:48;;;;;;;17.35;11.30;;;11.20;83.20;;;;;;9183027;19;20019;-71
2022/09/28 02:09:56;;;;;;;18.20;11.10;;;11.20;83.30;;;;;;9180792;19;20019;-70
2022/09/28 02:13:05;;;;;;;21.08;10.55;;;11.20;83.20;;;;;;9180964;19;20045;-68
2022/09/28 02:16:17;;;;;;;19.38;11.32;;;11.20;83.20;;;;;;9181451;19;20382;-71
2022/09/28 02:19:25;;;;;;;22.23;11.98;;;11.20;83.20;;;;;;9183923;19;20011;-69
2022/09/28 02:22:34;;;;;;;21.60;11.55;;;11.20;83.20;;;;;;9183057;19;20019;-70
2022/09/28 02:25:41;;;;;;;18.02;11.23;;;11.20;83.20;;;;;;9184180;19;20022;-69
2022/09/28 02:28:46;;;;;;;17.27;11.73;;;11.20;83.20;;;;;;9181431;19;20379;-69
2022/09/28 02:31:52;;;;;;;18.55;12.07;;;11.20;83.30;;;;;;9181609;19;20356;-69
2022/09/28 02:34:56;;;;;;;18.80;11.52;;;11.20;83.30;;;;;;9181652;19;20347;-69
2022/09/28 02:38:00;;;;;;;24.77;11.85;;;11.20;83.30;;;;;;9184164;19;20015;-70
2022/09/28 02:41:07;;;;;;;21.13;12.32;;;11.20;83.30;;;;;;9183466;19;20059;-70
2022/09/28 02:44:24;;;;;;;21.42;10.75;;;11.20;83.30;;;;;;9181045;19;20353;-69
2022/09/28 02:47:57;;;;;;;16.85;11.18;;;11.10;83.30;;;;;;9182046;19;20022;-69
2022/09/28 02:51:10;;;;;;;18.02;11.52;;;11.20;83.40;;;;;;9181430;19;20014;-69
2022/09/28 02:54:47;;;;;;;22.08;12.35;;;11.10;83.30;;;;;;9181316;19;20014;-69
2022/09/28 02:58:06;;;;;;;17.95;12.57;;;11.10;83.30;;;;;;9175579;19;20055;-69
2022/09/28 03:01:20;;;;;;;18.48;12.13;;;11.10;83.30;;;;;;9180405;19;20429;-69
2022/09/28 03:04:33;;;;;;;24.27;12.18;;;11.10;83.30;;;;;;9182984;19;20007;-69
2022/09/28 03:07:40;;;;;;;21.80;11.68;;;11.10;83.40;;;;;;9180214;19;20018;-70
2022/09/28 03:10:48;;;;;;;24.75;11.98;;;11.10;83.90;;;;;;9182424;19;20011;-69
2022/09/28 03:13:52;;;;;;;19.58;11.65;;;11.10;83.30;;;;;;9180654;19;20028;-70
2022/09/28 03:17:00;;;;;;;20.73;11.88;;;11.10;83.40;;;;;;9177217;19;20476;-69
2022/09/28 03:20:07;;;;;;;18.50;11.52;;;11.00;83.40;;;;;;9182080;19;20015;-70
2022/09/28 03:23:11;;;;;;;18.05;11.75;;;11.00;83.30;;;;;;9180456;19;20345;-69
2022/09/28 03:26:27;;;;;;;17.98;11.45;;;11.00;83.30;;;;;;9181755;19;20011;-70
2022/09/28 03:29:31;;;;;;;21.40;12.18;;;11.00;83.30;;;;;;9180931;19;20022;-69
2022/09/28 03:32:40;;;;;;;22.52;12.57;;;11.00;83.30;;;;;;9179407;19;20011;-71
2022/09/28 03:35:47;;;;;;;21.55;12.68;;;11.00;83.30;;;;;;9179099;19;20015;-71
2022/09/28 03:38:53;;;;;;;22.50;12.38;;;10.90;83.30;;;;;;9179161;19;20100;-68
2022/09/28 03:41:57;;;;;;;19.13;12.85;;;10.90;83.30;;;;;;9181210;19;20026;-71
2022/09/28 03:45:01;;;;;;;24.08;13.60;;;10.90;83.30;;;;;;9179688;19;20078;-69
2022/09/28 03:48:05;;;;;;;21.92;13.05;;;10.90;83.40;;;;;;9179776;19;20047;-70
2022/09/28 03:51:13;;;;;;;25.65;13.85;;;10.80;83.40;;;;;;9178821;19;20018;-68
2022/09/28 03:54:17;;;;;;;24.05;13.43;;;10.90;83.40;;;;;;9180123;19;20014;-68
2022/09/28 03:57:21;;;;;;;23.98;12.45;;;10.80;83.40;;;;;;9173553;19;20019;-69
2022/09/28 04:00:25;;;;;;;;;;;10.80;83.40;;;;;;9180733;19;20066;-68
2022/09/28 04:03:28;;;;;;;19.40;12.52;;;10.80;83.30;;;;;;9176721;19;19915;-71
2022/09/28 04:06:34;;;;;;;21.60;13.63;;;10.80;83.30;;;;;;9178802;19;20047;-69
2022/09/28 04:09:38;;;;;;;23.80;13.85;;;10.80;83.40;;;;;;9175556;19;20502;-69
2022/09/28 04:12:41;;;;;;;20.60;13.57;;;10.80;83.40;;;;;;9180042;19;20016;-67
2022/09/28 04:15:53;;;;;;;23.48;13.98;;;10.80;83.40;;;;;;9177014;19;20011;-69
2022/09/28 04:18:58;;;;;;;26.10;14.23;;;10.80;83.50;;;;;;9177200;19;20014;-68
2022/09/28 04:22:23;;;;;;;26.00;15.23;;;10.80;83.50;;;;;;9180372;19;20027;-70
2022/09/28 04:25:26;;;;;;;24.48;14.02;;;10.80;83.50;;;;;;9179998;19;20548;-69
2022/09/28 04:31:49;;;;;;;26.35;14.27;;;10.70;83.50;;;;;;9195240;19;20019;-69
2022/09/28 04:34:53;;;;;;;33.13;16.45;;;10.70;83.60;;;;;;9195511;19;20015;-68
2022/09/28 04:37:59;;;;;;;31.02;16.45;;;10.70;83.50;;;;;;9197192;19;20021;-68
2022/09/28 04:41:03;;;;;;;29.02;17.88;;;10.70;83.60;;;;;;9195578;19;20047;-71
2022/09/28 04:44:07;;;;;;;28.90;17.10;;;10.70;83.60;;;;;;9195163;19;20034;-71
2022/09/28 04:47:11;;;;;;;28.67;16.90;;;10.70;83.60;;;;;;9192013;19;20022;-69
2022/09/28 04:50:35;;;;;;;32.47;16.80;;;10.70;83.60;;;;;;9194358;19;20025;-69
2022/09/28 04:54:00;;;;;;;28.88;15.82;;;10.70;83.60;;;;;;9189083;19;20034;-68
2022/09/28 04:57:04;;;;;;;32.03;16.70;;;10.70;83.70;;;;;;9188366;19;20038;-69
2022/09/28 05:00:10;;;;;;;28.27;16.75;;;10.70;83.70;;;;;;9191011;19;20026;-68
2022/09/28 05:03:15;;;;;;;32.05;15.77;;;10.70;83.70;;;;;;9189541;19;20022;-70
2022/09/28 05:06:47;;;;;;;41.47;17.13;;;10.70;83.70;;;;;;9188305;19;20029;-69
2022/09/28 05:09:53;;;;;;;27.35;16.05;;;10.70;83.60;;;;;;9179935;19;20018;-68
2022/09/28 05:12:57;;;;;;;28.30;15.23;;;10.70;83.70;;;;;;9185087;19;20022;-69
2022/09/28 05:16:01;;;;;;;28.38;15.82;;;10.60;83.60;;;;;;9183027;19;20018;-66
2022/09/28 05:19:13;;;;;;;30.65;17.00;;;10.70;83.70;;;;;;9178871;19;20018;-68
2022/09/28 05:22:18;;;;;;;27.88;16.75;;;10.60;83.70;;;;;;9187991;19;20018;-70
2022/09/28 05:25:24;;;;;;;30.80;16.17;;;10.60;83.80;;;;;;9194054;19;20468;-68
2022/09/28 05:28:41;;;;;;;26.27;15.95;;;10.60;83.80;;;;;;9191927;19;20018;-68
2022/09/28 05:32:04;;;;;;;23.13;12.63;;;10.60;83.80;;;;;;9194621;19;20013;-69
2022/09/28 05:35:20;;;;;;;31.77;16.73;;;10.60;83.70;;;;;;9193672;19;20006;-70
2022/09/28 05:38:25;;;;;;;26.00;16.05;;;10.60;83.80;;;;;;9184646;19;20047;-71
2022/09/28 05:41:30;;;;;;;30.17;17.23;;;10.60;83.80;;;;;;9186110;19;20014;-68
2022/09/28 05:44:37;;;;;;;31.35;16.13;;;10.60;83.80;;;;;;9184633;19;20047;-69
2022/09/28 05:47:42;;;;;;;36.08;17.15;;;10.60;83.80;;;;;;9182977;19;20094;-71
2022/09/28 05:50:51;;;;;;;37.60;17.83;;;10.60;83.90;;;;;;9183955;19;20429;-70
2022/09/28 05:53:55;;;;;;;26.95;15.82;;;10.60;83.90;;;;;;9183678;19;20380;-69
2022/09/28 05:57:05;;;;;;;24.98;14.85;;;10.60;83.90;;;;;;9176133;19;20014;-68
2022/09/28 06:00:10;;;;;;;30.10;16.42;;;10.60;83.90;;;;;;9181905;19;20018;-69
2022/09/28 06:03:21;;;;;;;29.75;17.23;;;10.60;83.90;;;;;;9182272;19;20098;-68
2022/09/28 06:06:25;;;;;;;35.13;17.42;;;10.60;83.90;;;;;;9183262;19;20471;-69
2022/09/28 06:09:28;;;;;;;26.75;15.93;;;10.60;83.90;;;;;;9173913;19;20517;-69
2022/09/28 06:12:40;;;;;;;30.42;15.27;;;10.60;83.90;;;;;;9176232;19;20117;-69
2022/09/28 06:15:48;;;;;;;30.40;16.60;;;10.60;83.90;;;;;;9175566;19;20094;-69
2022/09/28 06:18:52;;;;;;;31.17;16.02;;;10.60;83.90;;;;;;9174489;19;20018;-69
2022/09/28 06:22:25;;;;;;;34.72;15.52;;;10.60;83.90;;;;;;9172774;19;20380;-67
2022/09/28 06:25:40;;;;;;;30.92;17.45;;;10.60;83.90;;;;;;9175312;19;20364;-69
2022/09/28 06:28:46;;;;;;;28.10;15.70;;;10.60;84.00;;;;;;9175083;19;20026;-70
2022/09/28 06:31:50;;;;;;;27.70;13.80;;;10.60;84.00;;;;;;9177216;19;20018;-69
2022/09/28 06:34:54;;;;;;;21.83;14.00;;;10.60;84.00;;;;;;9175358;19;20627;-68
2022/09/28 06:38:01;;;;;;;27.27;14.27;;;10.60;84.00;;;;;;9171899;19;20014;-68
2022/09/28 06:41:05;;;;;;;24.13;13.45;;;10.60;84.00;;;;;;9175158;19;20014;-68
2022/09/28 06:44:10;;;;;;;;;;;10.60;84.00;;;;;;9181983;19;20047;-69
2022/09/28 06:47:34;;;;;;;22.17;13.25;;;10.60;84.00;;;;;;9181753;19;19923;-69
2022/09/28 06:50:51;;;;;;;26.85;12.98;;;10.60;83.90;;;;;;9179107;19;20050;-69
2022/09/28 06:54:16;;;;;;;22.63;13.05;;;10.60;83.90;;;;;;9176851;19;20019;-69
2022/09/28 06:57:34;;;;;;;24.70;13.70;;;10.60;83.90;;;;;;9175957;19;20022;-71
2022/09/28 07:00:40;;;;;;;21.85;12.07;;;10.60;83.90;;;;;;9183127;19;20035;-69
2022/09/28 07:03:44;;;;;;;23.02;12.80;;;10.60;84.00;;;;;;9182960;19;20041;-68
2022/09/28 07:07:17;;;;;;;17.85;11.52;;;10.60;83.90;;;;;;9182521;19;20077;-69
2022/09/28 07:10:41;;;;;;;20.45;11.85;;;10.60;83.90;;;;;;9177498;19;20340;-69
2022/09/28 07:14:05;;;;;;;18.83;11.38;;;10.60;84.00;;;;;;9180048;19;20029;-70
2022/09/28 07:17:11;;;;;;;27.73;14.10;;;10.60;84.00;;;;;;9177308;19;20015;-70
2022/09/28 07:20:18;;;;;;;21.58;11.88;;;10.60;84.00;;;;;;9180741;19;20010;-70
2022/09/28 07:23:28;;;;;;;21.08;12.20;;;10.60;84.00;;;;;;9179057;19;20041;-70
2022/09/28 07:27:08;;;;;;;26.08;12.43;;;10.70;84.00;;;;;;9182092;19;20015;-70
2022/09/28 07:30:32;;;;;;;23.85;12.30;;;10.70;84.00;;;;;;9180540;19;20014;-70
2022/09/28 07:33:50;;;;;;;21.48;11.60;;;10.70;84.00;;;;;;9179894;19;20479;-69
2022/09/28 07:37:07;;;;;;;22.80;12.85;;;10.70;84.00;;;;;;9178119;19;20601;-69
2022/09/28 07:43:29;;;;;;;23.35;9.27;;;10.70;84.00;;;;;;9179329;19;20020;-69
2022/09/28 07:46:33;;;;;;;20.90;11.63;;;10.80;84.00;;;;;;9178373;19;20466;-70
2022/09/28 07:49:44;;;;;;;16.40;9.80;;;10.80;84.00;;;;;;9176163;19;20381;-69
2022/09/28 07:52:53;;;;;;;19.73;10.88;;;10.80;84.00;;;;;;9179876;19;20019;-69
2022/09/28 07:56:12;;;;;;;17.52;10.05;;;10.80;84.00;;;;;;9177625;19;20094;-70
2022/09/28 07:59:23;;;;;;;18.58;9.85;;;10.80;84.00;;;;;;9178803;19;20032;-71
2022/09/28 08:02:47;;;;;;;24.08;12.05;;;10.90;84.10;;;;;;9178439;19;20014;-70
2022/09/28 08:06:02;;;;;;;21.33;11.68;;;10.90;84.00;;;;;;9178266;19;20018;-70
2022/09/28 08:09:06;;;;;;;23.88;12.48;;;11.00;84.00;;;;;;9179162;19;20007;-71
2022/09/28 08:12:33;;;;;;;21.02;11.40;;;11.00;83.90;;;;;;9177597;19;20018;-70
2022/09/28 08:16:02;;;;;;;22.65;11.80;;;11.00;83.90;;;;;;9177955;19;20019;-70
2022/09/28 08:21:43;;;;;;;24.88;11.52;;;11.00;83.90;;;;;;9178007;19;20025;-68
2022/09/28 08:22:56;;;;;;;17.88;10.18;;;11.00;83.90;;;;;;9178496;19;20019;-69
2022/09/28 08:26:00;;;;;;;18.58;11.48;;;11.10;83.90;;;;;;9178132;19;20029;-70
2022/09/28 08:29:04;;;;;;;22.05;11.20;;;11.10;83.90;;;;;;9179611;19;20027;-69
2022/09/28 08:32:25;;;;;;;16.70;9.93;;;11.20;83.90;;;;;;9178706;19;20077;-68
2022/09/28 08:35:48;;;;;;;17.73;9.98;;;11.20;83.90;;;;;;9178886;19;20309;-69
2022/09/28 08:39:08;;;;;;;16.05;9.57;;;11.20;83.90;;;;;;9177202;19;20015;-69
2022/09/28 08:42:34;;;;;;;16.98;9.18;;;11.30;84.00;;;;;;9178930;19;20029;-68
2022/09/28 08:45:58;;;;;;;19.05;8.90;;;11.30;83.90;;;;;;9175062;19;20022;-68
2022/09/28 08:49:15;;;;;;;17.15;9.50;;;11.40;83.90;;;;;;9177411;19;20420;-70
2022/09/28 08:53:06;;;;;;;13.57;9.32;;;11.50;84.00;;;;;;9178133;19;20035;-70
2022/09/28 08:56:38;;;;;;;17.10;8.68;;;11.60;84.10;;;;;;9173030;19;20037;-70
2022/09/28 08:59:50;;;;;;;16.60;9.23;;;11.70;84.00;;;;;;9178846;19;20026;-69
2022/09/28 09:02:59;;;;;;;20.17;9.95;;;11.80;84.00;;;;;;9176543;19;20017;-70
2022/09/28 09:06:06;;;;;;;;;;;12.00;84.10;;;;;;9178602;19;20018;-70
2022/09/28 09:09:39;;;;;;;14.18;8.70;;;12.20;84.10;;;;;;9177543;19;19941;-69
2022/09/28 09:12:53;;;;;;;13.50;6.90;;;12.40;84.00;;;;;;9179825;19;20022;-69
2022/09/28 09:16:28;;;;;;;11.65;6.93;;;12.60;83.90;;;;;;9186094;19;20033;-69
2022/09/28 09:20:09;;;;;;;14.48;7.30;;;12.90;83.70;;;;;;9185101;19;20025;-70
2022/09/28 09:23:39;;;;;;;10.18;6.75;;;13.10;83.50;;;;;;9184559;19;20018;-70
2022/09/28 09:26:44;;;;;;;12.45;6.18;;;13.30;83.30;;;;;;9184513;19;20037;-68
2022/09/28 09:30:03;;;;;;;11.32;6.47;;;13.50;83.20;;;;;;9183823;19;20018;-69
2022/09/28 09:33:30;;;;;;;11.45;6.15;;;13.70;83.00;;;;;;9183262;19;20031;-69
2022/09/28 09:37:21;;;;;;;7.95;5.68;;;13.80;82.80;;;;;;9179996;19;20037;-69
2022/09/28 09:41:00;;;;;;;10.82;6.03;;;14.00;82.50;;;;;;9182730;19;20025;-68
2022/09/28 09:44:50;;;;;;;10.35;6.53;;;14.10;82.30;;;;;;9182336;19;20019;-69
2022/09/28 09:48:01;;;;;;;9.38;5.63;;;14.10;82.00;;;;;;9183446;19;20031;-69
2022/09/28 09:51:18;;;;;;;9.30;5.22;;;14.20;81.90;;;;;;9183510;19;20055;-70
2022/09/28 09:54:27;;;;;;;9.50;4.60;;;14.30;81.80;;;;;;9182816;19;20022;-70
2022/09/28 09:57:39;;;;;;;7.40;4.70;;;14.30;81.60;;;;;;9175892;19;20014;-70
2022/09/28 10:01:08;;;;;;;10.90;5.20;;;14.40;81.60;;;;;;9184526;19;20015;-69
2022/09/28 10:04:40;;;;;;;11.30;5.25;;;14.40;81.60;;;;;;9183978;19;20074;-69
2022/09/28 10:08:01;;;;;;;6.95;4.47;;;14.50;81.70;;;;;;9182816;19;20014;-70
2022/09/28 10:11:09;;;;;;;8.43;5.32;;;14.60;81.70;;;;;;9183302;19;20440;-70
2022/09/28 10:14:18;;;;;;;7.40;3.67;;;14.80;81.70;;;;;;9182912;19;20022;-70
2022/09/28 10:17:28;;;;;;;8.18;4.18;;;15.00;81.60;;;;;;9180396;19;20022;-69
2022/09/28 10:20:52;;;;;;;5.38;4.13;;;15.10;81.30;;;;;;9183932;19;20059;-69
2022/09/28 10:24:30;;;;;;;6.25;3.90;;;15.30;81.10;;;;;;9180026;19;20033;-71
2022/09/28 10:27:37;;;;;;;10.15;4.30;;;15.40;80.70;;;;;;9181374;19;20090;-70
2022/09/28 10:30:43;;;;;;;7.43;3.88;;;15.50;80.40;;;;;;9181808;19;20055;-70
2022/09/28 10:33:47;;;;;;;10.70;3.97;;;15.60;80.20;;;;;;9181727;19;20021;-70
2022/09/28 10:36:57;;;;;;;6.05;3.80;;;15.70;80.60;;;;;;9181636;19;20042;-70
2022/09/28 10:40:03;;;;;;;6.22;3.50;;;15.70;79.70;;;;;;9181753;19;20014;-70
2022/09/28 10:43:21;;;;;;;5.55;3.35;;;15.70;79.50;;;;;;9182058;19;20014;-70
2022/09/28 10:46:25;;;;;;;6.53;3.35;;;15.70;79.20;;;;;;9181249;19;20364;-70
2022/09/28 10:49:39;;;;;;;8.88;3.40;;;15.60;79.30;;;;;;9181127;19;20476;-69
2022/09/28 10:52:51;;;;;;;4.70;3.47;;;15.60;79.10;;;;;;9181540;19;20017;-72
2022/09/28 10:56:21;;;;;;;4.53;2.72;;;15.50;79.00;;;;;;9181248;19;20003;-70
2022/09/28 10:59:45;;;;;;;4.38;2.90;;;15.50;79.00;;;;;;9180718;19;20030;-69
2022/09/28 11:02:58;;;;;;;8.23;3.50;;;15.50;78.90;;;;;;9180612;19;20020;-71
2022/09/28 11:06:02;;;;;;;;;;;15.50;79.10;;;;;;9181407;19;20002;-69
2022/09/28 11:09:27;;;;;;;6.05;2.88;;;15.40;79.10;;;;;;9177518;19;19922;-70
2022/09/28 11:12:44;;;;;;;6.35;3.03;;;15.40;79.10;;;;;;9180357;19;20475;-71
2022/09/28 11:15:49;;;;;;;5.95;2.70;;;15.40;79.10;;;;;;9180436;19;20073;-70
2022/09/28 11:19:06;;;;;;;4.07;2.67;;;15.40;79.00;;;;;;9180394;19;20014;-69
2022/09/28 11:22:22;;;;;;;5.63;2.20;;;15.40;78.80;;;;;;9182004;19;20043;-70
2022/09/28 11:25:31;;;;;;;7.05;3.50;;;15.40;78.60;;;;;;9180906;19;20011;-70
2022/09/28 11:28:38;;;;;;;3.38;2.40;;;15.40;78.60;;;;;;9181987;19;20018;-70
2022/09/28 11:31:48;;;;;;;3.95;2.28;;;15.40;79.20;;;;;;9179564;19;20019;-70
2022/09/28 11:34:58;;;;;;;2.50;1.55;;;15.40;78.60;;;;;;9176117;19;20015;-70
2022/09/28 11:38:27;;;;;;;3.33;1.50;;;15.50;78.40;;;;;;9175605;19;20021;-70
2022/09/28 11:42:16;;;;;;;5.90;1.70;;;15.50;78.00;;;;;;9177145;19;20030;-71
2022/09/28 11:45:37;;;;;;;5.43;1.40;;;15.60;78.10;;;;;;9180161;19;20021;-70
2022/09/28 11:48:46;;;;;;;2.72;1.30;;;15.60;78.00;;;;;;9179891;19;20050;-69
2022/09/28 11:51:52;;;;;;;1.50;1.13;;;15.60;77.90;;;;;;9179577;19;20014;-70
2022/09/28 11:55:00;;;;;;;2.92;1.27;;;15.60;77.90;;;;;;9179047;19;20003;-70
2022/09/28 11:58:13;;;;;;;2.10;1.33;;;15.70;77.70;;;;;;9171224;19;20047;-72
2022/09/28 12:01:26;;;;;;;2.60;1.70;;;15.70;77.40;;;;;;9179540;19;20029;-70
2022/09/28 12:04:57;;;;;;;4.95;1.38;;;15.70;77.50;;;;;;9178930;19;20468;-69
2022/09/28 12:08:09;;;;;;;3.63;1.55;;;15.80;77.50;;;;;;9178402;19;20026;-70
2022/09/28 12:11:36;;;;;;;4.03;1.27;;;15.90;77.30;;;;;;9180847;19;20033;-71
2022/09/28 12:15:03;;;;;;;1.40;1.17;;;15.90;77.20;;;;;;9178631;19;20018;-71
2022/09/28 12:18:13;;;;;;;2.13;1.20;;;16.00;77.10;;;;;;9175100;19;20091;-69
2022/09/28 12:21:33;;;;;;;3.10;1.45;;;16.00;77.00;;;;;;9181124;19;20082;-70
2022/09/28 12:24:41;;;;;;;3.72;1.30;;;16.00;76.50;;;;;;9179859;19;20186;-70
2022/09/28 12:27:51;;;;;;;5.07;1.77;;;16.00;76.60;;;;;;9179150;19;20019;-70
2022/09/28 12:31:01;;;;;;;2.95;1.70;;;16.00;76.50;;;;;;9177014;19;20455;-70
2022/09/28 12:34:05;;;;;;;3.03;1.85;;;16.00;76.40;;;;;;9178931;19;20018;-70
2022/09/28 12:37:30;;;;;;;7.20;2.22;;;16.00;76.40;;;;;;9176618;19;20014;-70
2022/09/28 12:40:42;;;;;;;2.28;1.80;;;16.00;76.20;;;;;;9178448;19;20161;-69
2022/09/28 12:44:04;;;;;;;4.32;2.00;;;16.00;76.30;;;;;;9179375;19;20010;-70
2022/09/28 12:47:31;;;;;;;5.80;1.90;;;15.90;76.20;;;;;;9180792;19;20026;-71
2022/09/28 12:50:40;;;;;;;3.90;2.28;;;15.90;76.00;;;;;;9187396;19;20030;-71
2022/09/28 12:54:06;;;;;;;2.08;1.58;;;15.90;76.20;;;;;;9187118;19;20022;-70
2022/09/28 12:57:31;;;;;;;1.38;1.25;;;15.90;76.10;;;;;;9180592;19;20007;-71
2022/09/28 13:00:44;;;;;;;4.38;1.40;;;15.90;76.00;;;;;;9186569;19;20086;-70
2022/09/28 13:04:10;;;;;;;4.20;1.20;;;15.90;76.10;;;;;;9186569;19;20344;-70
2022/09/28 13:07:25;;;;;;;3.70;1.42;;;15.80;75.80;;;;;;9186547;19;20368;-70
2022/09/28 13:10:36;;;;;;;3.85;1.63;;;15.90;76.00;;;;;;9183596;19;20034;-70
2022/09/28 13:13:48;;;;;;;1.48;1.38;;;15.90;75.90;;;;;;9185890;19;20010;-69
2022/09/28 13:17:01;;;;;;;1.40;1.30;;;15.90;75.80;;;;;;9183343;19;20022;-70
2022/09/28 13:20:22;;;;;;;5.00;1.75;;;15.90;75.80;;;;;;9185958;19;20018;-70
2022/09/28 13:23:29;;;;;;;3.72;1.38;;;15.90;75.50;;;;;;9186914;19;20085;-70
2022/09/28 13:26:38;;;;;;;2.90;1.48;;;15.90;75.60;;;;;;9182396;19;20025;-71
2022/09/28 13:29:42;;;;;;;5.88;1.38;;;15.90;75.50;;;;;;9183861;19;20014;-69
2022/09/28 13:32:50;;;;;;;1.58;1.25;;;15.90;75.40;;;;;;9182591;19;20501;-70
2022/09/28 13:35:56;;;;;;;4.15;0.90;;;16.00;75.40;;;;;;9185341;19;20394;-70
2022/09/28 13:39:01;;;;;;;0.80;0.60;;;16.00;75.30;;;;;;9182679;19;20098;-69
2022/09/28 13:42:06;;;;;;;2.33;0.75;;;15.90;75.10;;;;;;9184269;19;20006;-71
2022/09/28 13:45:43;;;;;;;1.67;1.30;;;15.90;75.10;;;;;;9183661;19;20019;-70
2022/09/28 13:48:55;;;;;;;1.00;0.35;;;15.90;74.90;;;;;;9185952;19;20014;-70
2022/09/28 13:52:07;;;;;;;5.90;0.50;;;15.90;75.10;;;;;;9183577;19;20090;-70
2022/09/28 13:55:23;;;;;;;1.25;0.50;;;15.80;75.00;;;;;;9182649;19;20014;-68
2022/09/28 13:58:32;;;;;;;2.00;0.45;;;15.90;75.00;;;;;;9176491;19;20086;-70
2022/09/28 14:01:41;;;;;;;4.30;0.50;;;15.90;75.00;;;;;;9183295;19;20018;-70
2022/09/28 14:04:57;;;;;;;4.05;0.65;;;15.90;75.00;;;;;;9184519;19;20014;-70
2022/09/28 14:08:30;;;;;;;1.65;0.73;;;15.90;74.90;;;;;;9184262;19;20018;-70
2022/09/28 14:11:44;;;;;;;2.70;0.50;;;16.00;74.80;;;;;;9181241;19;20038;-71
2022/09/28 14:14:51;;;;;;;0.38;0.35;;;16.00;74.60;;;;;;9183808;19;20019;-68
2022/09/28 14:18:10;;;;;;;0.55;0.22;;;16.10;74.80;;;;;;9182003;19;20082;-71
2022/09/28 14:21:39;;;;;;;1.08;0.35;;;16.20;74.50;;;;;;9182064;19;20018;-71
2022/09/28 14:25:07;;;;;;;0.60;0.40;;;16.20;74.30;;;;;;9184168;19;20086;-70
2022/09/28 14:28:38;;;;;;;0.30;0.30;;;16.30;74.10;;;;;;9183661;19;20027;-69
2022/09/28 14:31:44;;;;;;;0.82;0.40;;;16.30;73.90;;;;;;9184193;19;20046;-70
2022/09/28 14:34:55;;;;;;;0.35;0.30;;;16.40;74.10;;;;;;9177733;19;20051;-70
2022/09/28 14:41:34;;;;;;;1.30;0.50;;;16.50;73.80;;;;;;9179339;19;20025;-69
2022/09/28 14:45:10;;;;;;;2.63;1.40;;;16.60;73.60;;;;;;9179005;19;20071;-70
2022/09/28 14:48:19;;;;;;;0.55;0.50;;;16.70;73.50;;;;;;9173366;19;20055;-68
2022/09/28 14:51:45;;;;;;;0.80;0.40;;;16.70;73.60;;;;;;9177256;19;20018;-70
2022/09/28 14:54:55;;;;;;;0.85;0.50;;;16.80;73.20;;;;;;9172167;19;20030;-69
2022/09/28 14:58:00;;;;;;;3.55;0.70;;;16.80;73.30;;;;;;9163603;19;21605;-71
2022/09/28 15:01:07;;;;;;;1.40;0.40;;;16.90;73.20;;;;;;9170104;19;20082;-71
2022/09/28 15:04:13;;;;;;;1.55;0.57;;;16.90;73.00;;;;;;9172572;19;20386;-70
2022/09/28 15:07:22;;;;;;;2.03;0.55;;;16.90;72.90;;;;;;9177235;19;20011;-70
2022/09/28 15:10:31;;;;;;;2.13;0.77;;;16.90;72.80;;;;;;9167580;19;20097;-71
2022/09/28 15:13:39;;;;;;;0.77;0.73;;;16.90;72.70;;;;;;9176974;19;20046;-68
2022/09/28 15:16:43;;;;;;;0.82;0.82;;;17.00;72.70;;;;;;9169744;19;20021;-70
2022/09/28 15:19:54;;;;;;;1.95;0.60;;;17.00;72.60;;;;;;9168946;19;20078;-71
2022/09/28 15:23:00;;;;;;;2.63;0.82;;;17.00;72.40;;;;;;9173797;19;20032;-69
2022/09/28 15:26:05;;;;;;;2.00;0.60;;;16.90;72.40;;;;;;9176690;19;20031;-69
2022/09/28 15:29:18;;;;;;;0.30;0.30;;;16.90;72.40;;;;;;9181763;19;20329;-68
2022/09/28 15:32:25;;;;;;;1.45;0.55;;;16.90;72.20;;;;;;9180765;19;20018;-68
2022/09/28 15:35:27;;;;;;;2.03;1.45;;;16.90;72.20;;;;;;9179786;19;20092;-69
2022/09/28 15:38:32;;;;;;;1.60;1.08;;;16.80;72.20;;;;;;9166720;19;20029;-68
2022/09/28 15:41:36;;;;;;;1.85;0.52;;;16.80;72.20;;;;;;9175665;19;20014;-68
2022/09/28 15:44:46;;;;;;;1.40;0.50;;;16.70;72.20;;;;;;9180946;19;20082;-69
2022/09/28 15:47:51;;;;;;;14.85;3.15;;;16.60;72.10;;;;;;9175971;19;20018;-67
2022/09/28 15:51:00;;;;;;;7.57;2.38;;;16.60;72.10;;;;;;9172050;19;20027;-68
2022/09/28 15:54:13;;;;;;;1.60;1.05;;;16.50;72.00;;;;;;9181014;19;20078;-69
2022/09/28 15:57:32;;;;;;;12.95;2.90;;;16.50;72.10;;;;;;9174371;19;20408;-68
2022/09/28 16:00:39;;;;;;;13.82;3.00;;;16.40;71.90;;;;;;9172958;19;20018;-69
2022/09/28 16:03:42;;;;;;;10.00;2.22;;;16.40;72.10;;;;;;9173265;19;20490;-68
2022/09/28 16:07:06;;;;;;;9.48;2.50;;;16.30;72.20;;;;;;9173148;19;20018;-69
2022/09/28 16:10:30;;;;;;;3.47;1.30;;;16.20;72.10;;;;;;9169815;19;20051;-69
2022/09/28 16:13:34;;;;;;;6.72;0.75;;;16.20;72.20;;;;;;9173745;19;20405;-67
2022/09/28 16:16:46;;;;;;;2.42;0.60;;;16.10;72.50;;;;;;9169040;19;20026;-69
2022/09/28 16:19:50;;;;;;;3.67;0.80;;;16.00;72.40;;;;;;9173366;19;20010;-70
2022/09/28 16:22:55;;;;;;;2.25;0.63;;;16.00;72.60;;;;;;9171670;19;20015;-69
2022/09/28 16:26:02;;;;;;;0.70;0.38;;;15.90;72.60;;;;;;9171683;19;20481;-69
2022/09/28 16:29:10;;;;;;;0.43;0.40;;;15.80;72.60;;;;;;9173330;19;20383;-69
2022/09/28 16:32:40;;;;;;;1.73;0.55;;;15.70;72.60;;;;;;9172756;19;20010;-69
2022/09/28 16:35:51;;;;;;;1.33;0.50;;;15.70;72.70;;;;;;9171509;19;20082;-68
2022/09/28 16:38:55;;;;;;;0.65;0.40;;;15.60;72.80;;;;;;9170115;19;20059;-69
2022/09/28 16:42:04;;;;;;;1.00;0.47;;;15.50;72.90;;;;;;9170156;19;20014;-69